sensor_id;sensor_type;location;lat;lon;timestamp;pressure;altitude;pressure_sealevel;temperature;humidity
62544;BME280;48597;49.030;1.822;2023-06-19T00:00:13;100326.75;;;25.48;47.79
62544;BME280;48597;49.030;1.822;2023-06-19T00:02:43;100325.16;;;25.47;47.75
62544;BME280;48597;49.030;1.822;2023-06-19T00:05:09;100324.34;;;25.46;47.76
62544;BME280;48597;49.030;1.822;2023-06-19T00:07:38;100322.75;;;25.45;47.52
62544;BME280;48597;49.030;1.822;2023-06-19T00:10:04;100320.66;;;25.46;47.37
62544;BME280;48597;49.030;1.822;2023-06-19T00:12:30;100316.19;;;25.45;47.38
62544;BME280;48597;49.030;1.822;2023-06-19T00:14:55;100315.44;;;25.44;47.61
62544;BME280;48597;49.030;1.822;2023-06-19T00:17:21;100327.47;;;25.43;47.59
62544;BME280;48597;49.030;1.822;2023-06-19T00:19:47;100340.31;;;25.42;47.55
62544;BME280;48597;49.030;1.822;2023-06-19T00:22:14;100338.22;;;25.42;47.32
62544;BME280;48597;49.030;1.822;2023-06-19T00:24:40;100340.31;;;25.42;47.36
62544;BME280;48597;49.030;1.822;2023-06-19T00:27:06;100337.91;;;25.40;47.26
62544;BME280;48597;49.030;1.822;2023-06-19T00:29:32;100329.28;;;25.40;47.29
62544;BME280;48597;49.030;1.822;2023-06-19T00:31:58;100330.06;;;25.41;47.38
62544;BME280;48597;49.030;1.822;2023-06-19T00:34:24;100345.00;;;25.39;47.35
62544;BME280;48597;49.030;1.822;2023-06-19T00:36:50;100339.22;;;25.39;47.18
62544;BME280;48597;49.030;1.822;2023-06-19T00:39:16;100343.41;;;25.38;47.31
62544;BME280;48597;49.030;1.822;2023-06-19T00:41:43;100357.81;;;25.38;47.20
62544;BME280;48597;49.030;1.822;2023-06-19T00:44:09;100357.03;;;25.38;47.37
62544;BME280;48597;49.030;1.822;2023-06-19T00:46:40;100366.97;;;25.37;47.38
62544;BME280;48597;49.030;1.822;2023-06-19T00:49:07;100366.97;;;25.37;47.28
62544;BME280;48597;49.030;1.822;2023-06-19T00:51:33;100372.44;;;25.35;47.15
62544;BME280;48597;49.030;1.822;2023-06-19T00:53:59;100380.31;;;25.34;47.05
62544;BME280;48597;49.030;1.822;2023-06-19T00:56:24;100381.09;;;25.35;47.16
62544;BME280;48597;49.030;1.822;2023-06-19T00:58:57;100386.88;;;25.35;47.12
62544;BME280;48597;49.030;1.822;2023-06-19T01:01:22;100387.38;;;25.33;46.96
62544;BME280;48597;49.030;1.822;2023-06-19T01:03:51;100388.66;;;25.32;47.19
62544;BME280;48597;49.030;1.822;2023-06-19T01:06:21;100388.66;;;25.32;46.94
62544;BME280;48597;49.030;1.822;2023-06-19T01:09:02;100393.66;;;25.32;46.89
62544;BME280;48597;49.030;1.822;2023-06-19T01:11:37;100390.78;;;25.32;46.72
62544;BME280;48597;49.030;1.822;2023-06-19T01:14:09;100379.75;;;25.30;46.94
62544;BME280;48597;49.030;1.822;2023-06-19T01:16:38;100386.31;;;25.31;46.96
62544;BME280;48597;49.030;1.822;2023-06-19T01:19:05;100381.03;;;25.29;46.89
62544;BME280;48597;49.030;1.822;2023-06-19T01:21:35;100388.91;;;25.28;46.74
62544;BME280;48597;49.030;1.822;2023-06-19T01:24:01;100391.78;;;25.28;46.97
62544;BME280;48597;49.030;1.822;2023-06-19T01:26:28;100395.47;;;25.29;46.64
62544;BME280;48597;49.030;1.822;2023-06-19T01:28:55;100397.56;;;25.28;46.88
62544;BME280;48597;49.030;1.822;2023-06-19T01:31:25;100385.22;;;25.28;46.97
62544;BME280;48597;49.030;1.822;2023-06-19T01:33:54;100393.06;;;25.27;46.62
62544;BME280;48597;49.030;1.822;2023-06-19T01:36:20;100398.03;;;25.27;46.97
62544;BME280;48597;49.030;1.822;2023-06-19T01:38:48;100397.25;;;25.26;46.95
62544;BME280;48597;49.030;1.822;2023-06-19T01:41:15;100397.25;;;25.26;46.82
62544;BME280;48597;49.030;1.822;2023-06-19T01:43:41;100389.88;;;25.25;46.63
62544;BME280;48597;49.030;1.822;2023-06-19T01:46:07;100394.88;;;25.25;46.84
62544;BME280;48597;49.030;1.822;2023-06-19T01:48:35;100391.19;;;25.24;47.08
62544;BME280;48597;49.030;1.822;2023-06-19T01:51:02;100397.75;;;25.25;46.85
62544;BME280;48597;49.030;1.822;2023-06-19T01:53:30;100394.06;;;25.24;46.71
62544;BME280;48597;49.030;1.822;2023-06-19T01:55:55;100401.13;;;25.23;46.97
62544;BME280;48597;49.030;1.822;2023-06-19T01:58:21;100403.22;;;25.23;46.84
62544;BME280;48597;49.030;1.822;2023-06-19T02:00:46;100401.13;;;25.23;46.98
62544;BME280;48597;49.030;1.822;2023-06-19T02:03:12;100394.56;;;25.23;46.78
62544;BME280;48597;49.030;1.822;2023-06-19T02:05:37;100400.81;;;25.21;46.77
62544;BME280;48597;49.030;1.822;2023-06-19T02:08:05;100400.03;;;25.21;46.81
62544;BME280;48597;49.030;1.822;2023-06-19T02:10:30;100399.25;;;25.20;46.89
62544;BME280;48597;49.030;1.822;2023-06-19T02:12:56;100405.00;;;25.20;46.91
62544;BME280;48597;49.030;1.822;2023-06-19T02:15:21;100406.28;;;25.19;46.73
62544;BME280;48597;49.030;1.822;2023-06-19T02:17:46;100415.75;;;25.20;46.92
62544;BME280;48597;49.030;1.822;2023-06-19T02:20:12;100415.75;;;25.20;46.71
62544;BME280;48597;49.030;1.822;2023-06-19T02:22:38;100422.03;;;25.18;46.78
62544;BME280;48597;49.030;1.822;2023-06-19T02:25:05;100433.59;;;25.18;46.80
62544;BME280;48597;49.030;1.822;2023-06-19T02:27:31;100424.13;;;25.18;46.79
62544;BME280;48597;49.030;1.822;2023-06-19T02:29:57;100432.00;;;25.17;46.79
62544;BME280;48597;49.030;1.822;2023-06-19T02:32:22;100427.50;;;25.16;46.79
62544;BME280;48597;49.030;1.822;2023-06-19T02:34:47;100429.91;;;25.18;46.85
62544;BME280;48597;49.030;1.822;2023-06-19T02:37:13;100431.19;;;25.17;46.80
62544;BME280;48597;49.030;1.822;2023-06-19T02:39:38;100428.81;;;25.15;46.89
62544;BME280;48597;49.030;1.822;2023-06-19T02:42:04;100430.88;;;25.15;46.91
62544;BME280;48597;49.030;1.822;2023-06-19T02:44:30;100420.66;;;25.14;46.85
62544;BME280;48597;49.030;1.822;2023-06-19T02:46:55;100430.09;;;25.14;46.77
62544;BME280;48597;49.030;1.822;2023-06-19T02:49:20;100432.97;;;25.14;46.48
62544;BME280;48597;49.030;1.822;2023-06-19T02:51:46;100428.50;;;25.13;46.80
62544;BME280;48597;49.030;1.822;2023-06-19T02:54:11;100427.72;;;25.13;46.73
62544;BME280;48597;49.030;1.822;2023-06-19T02:56:37;100426.91;;;25.12;46.61
62544;BME280;48597;49.030;1.822;2023-06-19T02:59:03;100429.78;;;25.12;46.76
62544;BME280;48597;49.030;1.822;2023-06-19T03:01:29;100427.72;;;25.13;46.61
62544;BME280;48597;49.030;1.822;2023-06-19T03:03:55;100429.00;;;25.12;46.61
62544;BME280;48597;49.030;1.822;2023-06-19T03:06:20;100429.50;;;25.10;46.66
62544;BME280;48597;49.030;1.822;2023-06-19T03:08:46;100426.59;;;25.10;46.78
62544;BME280;48597;49.030;1.822;2023-06-19T03:11:11;100423.72;;;25.10;46.54
62544;BME280;48597;49.030;1.822;2023-06-19T03:13:53;100417.94;;;25.10;46.68
62544;BME280;48597;49.030;1.822;2023-06-19T03:16:20;100423.72;;;25.10;46.66
62544;BME280;48597;49.030;1.822;2023-06-19T03:18:46;100430.78;;;25.09;46.67
62544;BME280;48597;49.030;1.822;2023-06-19T03:21:15;100422.94;;;25.10;46.60
62544;BME280;48597;49.030;1.822;2023-06-19T03:23:41;100432.06;;;25.08;46.57
62544;BME280;48597;49.030;1.822;2023-06-19T03:26:07;100430.78;;;25.09;46.55
62544;BME280;48597;49.030;1.822;2023-06-19T03:28:33;100437.03;;;25.08;46.50
62544;BME280;48597;49.030;1.822;2023-06-19T03:30:58;100438.34;;;25.07;46.53
62544;BME280;48597;49.030;1.822;2023-06-19T03:33:23;100442.00;;;25.07;46.66
62544;BME280;48597;49.030;1.822;2023-06-19T03:35:49;100453.56;;;25.07;46.58
62544;BME280;48597;49.030;1.822;2023-06-19T03:38:14;100446.19;;;25.06;46.38
62544;BME280;48597;49.030;1.822;2023-06-19T03:40:40;100451.69;;;25.04;46.51
62544;BME280;48597;49.030;1.822;2023-06-19T03:43:05;100451.69;;;25.04;46.40
62544;BME280;48597;49.030;1.822;2023-06-19T03:45:31;100445.91;;;25.04;46.42
62544;BME280;48597;49.030;1.822;2023-06-19T03:47:56;100438.56;;;25.03;46.40
62544;BME280;48597;49.030;1.822;2023-06-19T03:50:22;100434.88;;;25.03;46.41
62544;BME280;48597;49.030;1.822;2023-06-19T03:52:47;100439.84;;;25.02;46.46
62544;BME280;48597;49.030;1.822;2023-06-19T03:55:13;100446.09;;;25.01;46.60
62544;BME280;48597;49.030;1.822;2023-06-19T03:57:38;100446.91;;;25.01;46.19
62544;BME280;48597;49.030;1.822;2023-06-19T04:00:04;100446.09;;;25.01;46.21
62544;BME280;48597;49.030;1.822;2023-06-19T04:02:33;100449.00;;;25.01;46.19
62544;BME280;48597;49.030;1.822;2023-06-19T04:04:59;100450.28;;;25.00;46.19
62544;BME280;48597;49.030;1.822;2023-06-19T04:07:25;100451.09;;;25.00;46.15
62544;BME280;48597;49.030;1.822;2023-06-19T04:09:50;100458.13;;;24.99;46.02
62544;BME280;48597;49.030;1.822;2023-06-19T04:12:15;100458.13;;;24.99;46.28
62544;BME280;48597;49.030;1.822;2023-06-19T04:14:41;100454.94;;;24.97;46.10
62544;BME280;48597;49.030;1.822;2023-06-19T04:17:06;100449.97;;;24.98;45.99
62544;BME280;48597;49.030;1.822;2023-06-19T04:19:32;100458.63;;;24.98;46.02
62544;BME280;48597;49.030;1.822;2023-06-19T04:21:57;100456.25;;;24.96;45.80
62544;BME280;48597;49.030;1.822;2023-06-19T04:24:23;100456.25;;;24.96;45.99
62544;BME280;48597;49.030;1.822;2023-06-19T04:26:48;100459.13;;;24.96;45.84
62544;BME280;48597;49.030;1.822;2023-06-19T04:29:13;100463.28;;;24.95;45.91
62544;BME280;48597;49.030;1.822;2023-06-19T04:31:44;100463.28;;;24.95;45.95
62544;BME280;48597;49.030;1.822;2023-06-19T04:34:20;100459.63;;;24.95;46.07
62544;BME280;48597;49.030;1.822;2023-06-19T04:36:49;100460.41;;;24.95;46.04
62544;BME280;48597;49.030;1.822;2023-06-19T04:39:15;100463.28;;;24.95;46.23
62544;BME280;48597;49.030;1.822;2023-06-19T04:41:44;100464.09;;;24.96;46.25
62544;BME280;48597;49.030;1.822;2023-06-19T04:44:10;100470.34;;;24.94;46.15
62544;BME280;48597;49.030;1.822;2023-06-19T04:46:38;100464.59;;;24.94;46.21
62544;BME280;48597;49.030;1.822;2023-06-19T04:49:05;100470.34;;;24.94;46.21
62544;BME280;48597;49.030;1.822;2023-06-19T04:51:31;100475.31;;;24.93;46.31
62544;BME280;48597;49.030;1.822;2023-06-19T04:54:00;100483.97;;;24.93;46.31
62544;BME280;48597;49.030;1.822;2023-06-19T04:56:26;100486.06;;;24.93;46.46
62544;BME280;48597;49.030;1.822;2023-06-19T04:58:51;100478.22;;;24.93;46.54
62544;BME280;48597;49.030;1.822;2023-06-19T05:01:17;100477.41;;;24.93;46.45
62544;BME280;48597;49.030;1.822;2023-06-19T05:03:44;100481.88;;;24.94;46.57
62544;BME280;48597;49.030;1.822;2023-06-19T05:06:11;100481.09;;;24.93;46.44
62544;BME280;48597;49.030;1.822;2023-06-19T05:08:36;100484.78;;;24.94;46.63
62544;BME280;48597;49.030;1.822;2023-06-19T05:11:02;100489.75;;;24.93;46.76
62544;BME280;48597;49.030;1.822;2023-06-19T05:13:27;100491.81;;;24.93;46.77
62544;BME280;48597;49.030;1.822;2023-06-19T05:15:53;100491.81;;;24.93;46.67
62544;BME280;48597;49.030;1.822;2023-06-19T05:18:18;100502.06;;;24.94;46.73
62544;BME280;48597;49.030;1.822;2023-06-19T05:20:44;100501.28;;;24.93;47.00
62544;BME280;48597;49.030;1.822;2023-06-19T05:23:10;100494.72;;;24.93;46.73
62544;BME280;48597;49.030;1.822;2023-06-19T05:25:35;100497.59;;;24.93;46.80
62544;BME280;48597;49.030;1.822;2023-06-19T05:28:01;100493.13;;;24.92;46.81
62544;BME280;48597;49.030;1.822;2023-06-19T05:30:26;100500.97;;;24.91;46.81
62544;BME280;48597;49.030;1.822;2023-06-19T05:32:52;100498.88;;;24.92;46.90
62544;BME280;48597;49.030;1.822;2023-06-19T05:35:17;100498.88;;;24.92;46.63
62544;BME280;48597;49.030;1.822;2023-06-19T05:37:43;100491.53;;;24.91;46.71
62544;BME280;48597;49.030;1.822;2023-06-19T05:40:09;100498.88;;;24.92;46.69
62544;BME280;48597;49.030;1.822;2023-06-19T05:42:36;100489.44;;;24.91;46.66
62544;BME280;48597;49.030;1.822;2023-06-19T05:45:02;100489.44;;;24.91;46.62
62544;BME280;48597;49.030;1.822;2023-06-19T05:47:28;100485.75;;;24.91;46.66
62544;BME280;48597;49.030;1.822;2023-06-19T05:49:54;100491.81;;;24.93;46.45
62544;BME280;48597;49.030;1.822;2023-06-19T05:52:20;100492.31;;;24.91;46.50
62544;BME280;48597;49.030;1.822;2023-06-19T05:54:46;100497.28;;;24.91;46.39
62544;BME280;48597;49.030;1.822;2023-06-19T05:57:11;100500.16;;;24.91;46.39
62544;BME280;48597;49.030;1.822;2023-06-19T05:59:37;100503.84;;;24.91;46.43
62544;BME280;48597;49.030;1.822;2023-06-19T06:02:02;100498.56;;;24.90;46.46
62544;BME280;48597;49.030;1.822;2023-06-19T06:04:28;100500.97;;;24.91;46.63
62544;BME280;48597;49.030;1.822;2023-06-19T06:06:55;100500.97;;;24.91;46.61
62544;BME280;48597;49.030;1.822;2023-06-19T06:09:21;100503.06;;;24.91;46.74
62544;BME280;48597;49.030;1.822;2023-06-19T06:11:46;100492.31;;;24.91;46.81
62544;BME280;48597;49.030;1.822;2023-06-19T06:14:12;100498.09;;;24.91;47.21
62544;BME280;48597;49.030;1.822;2023-06-19T06:16:37;100500.97;;;24.91;46.83
62544;BME280;48597;49.030;1.822;2023-06-19T06:19:03;100515.38;;;24.91;47.09
62544;BME280;48597;49.030;1.822;2023-06-19T06:21:28;100503.06;;;24.91;46.93
62544;BME280;48597;49.030;1.822;2023-06-19T06:23:54;100490.22;;;24.92;47.08
62544;BME280;48597;49.030;1.822;2023-06-19T06:26:20;100492.31;;;24.91;47.01
62544;BME280;48597;49.030;1.822;2023-06-19T06:28:45;100495.19;;;24.91;47.23
62544;BME280;48597;49.030;1.822;2023-06-19T06:31:10;100506.72;;;24.91;47.21
62544;BME280;48597;49.030;1.822;2023-06-19T06:33:36;100506.72;;;24.91;47.21
62544;BME280;48597;49.030;1.822;2023-06-19T06:36:02;100516.19;;;24.92;47.36
62544;BME280;48597;49.030;1.822;2023-06-19T06:38:27;100509.63;;;24.91;47.32
62544;BME280;48597;49.030;1.822;2023-06-19T06:40:52;100498.88;;;24.92;47.23
62544;BME280;48597;49.030;1.822;2023-06-19T06:43:18;100503.34;;;24.93;47.46
62544;BME280;48597;49.030;1.822;2023-06-19T06:45:43;100496.00;;;24.92;47.55
62544;BME280;48597;49.030;1.822;2023-06-19T06:48:09;100499.69;;;24.92;47.33
62544;BME280;48597;49.030;1.822;2023-06-19T06:50:34;100488.94;;;24.93;47.47
62544;BME280;48597;49.030;1.822;2023-06-19T06:53:00;100490.53;;;24.94;47.62
62544;BME280;48597;49.030;1.822;2023-06-19T06:55:26;100499.19;;;24.94;47.42
62544;BME280;48597;49.030;1.822;2023-06-19T06:57:51;100496.31;;;24.94;47.50
62544;BME280;48597;49.030;1.822;2023-06-19T07:00:17;100502.06;;;24.94;47.55
62544;BME280;48597;49.030;1.822;2023-06-19T07:02:43;100507.34;;;24.96;47.41
62544;BME280;48597;49.030;1.822;2023-06-19T07:05:10;100509.44;;;24.95;47.46
62544;BME280;48597;49.030;1.822;2023-06-19T07:07:36;100510.22;;;24.96;47.50
62544;BME280;48597;49.030;1.822;2023-06-19T07:10:02;100516.00;;;24.96;47.59
62544;BME280;48597;49.030;1.822;2023-06-19T07:12:28;100524.66;;;24.96;47.52
62544;BME280;48597;49.030;1.822;2023-06-19T07:14:53;100528.31;;;24.96;47.54
62544;BME280;48597;49.030;1.822;2023-06-19T07:17:19;100531.22;;;24.96;47.68
62544;BME280;48597;49.030;1.822;2023-06-19T07:19:45;100534.09;;;24.96;47.71
62544;BME280;48597;49.030;1.822;2023-06-19T07:22:10;100532.00;;;24.97;47.66
62544;BME280;48597;49.030;1.822;2023-06-19T07:24:36;100527.53;;;24.96;47.50
62544;BME280;48597;49.030;1.822;2023-06-19T07:27:01;100535.69;;;24.97;47.52
62544;BME280;48597;49.030;1.822;2023-06-19T07:29:27;100528.31;;;24.96;47.52
62544;BME280;48597;49.030;1.822;2023-06-19T07:31:52;100534.09;;;24.96;47.56
62544;BME280;48597;49.030;1.822;2023-06-19T07:34:18;100539.38;;;24.98;47.79
62544;BME280;48597;49.030;1.822;2023-06-19T07:36:43;100530.72;;;24.98;47.65
62544;BME280;48597;49.030;1.822;2023-06-19T07:39:09;100536.47;;;24.98;47.66
62544;BME280;48597;49.030;1.822;2023-06-19T07:41:35;100533.09;;;24.99;47.64
62544;BME280;48597;49.030;1.822;2023-06-19T07:44:00;100538.88;;;24.99;47.88
62544;BME280;48597;49.030;1.822;2023-06-19T07:46:25;100546.25;;;25.00;47.77
62544;BME280;48597;49.030;1.822;2023-06-19T07:48:51;100544.66;;;24.99;47.62
62544;BME280;48597;49.030;1.822;2023-06-19T07:51:16;100549.13;;;25.00;47.78
62544;BME280;48597;49.030;1.822;2023-06-19T07:53:42;100545.44;;;25.00;47.87
62544;BME280;48597;49.030;1.822;2023-06-19T07:56:08;100550.72;;;25.01;47.73
62544;BME280;48597;49.030;1.822;2023-06-19T07:58:34;100547.03;;;25.01;47.65
62544;BME280;48597;49.030;1.822;2023-06-19T08:01:00;100547.84;;;25.01;47.72
62544;BME280;48597;49.030;1.822;2023-06-19T08:03:26;100547.03;;;25.01;47.73
62544;BME280;48597;49.030;1.822;2023-06-19T08:05:52;100542.88;;;25.02;47.67
62544;BME280;48597;49.030;1.822;2023-06-19T08:08:18;100541.56;;;25.03;47.61
62544;BME280;48597;49.030;1.822;2023-06-19T08:10:43;100539.97;;;25.02;47.72
62544;BME280;48597;49.030;1.822;2023-06-19T08:13:08;100548.13;;;25.03;47.71
62544;BME280;48597;49.030;1.822;2023-06-19T08:15:36;100546.84;;;25.04;47.78
62544;BME280;48597;49.030;1.822;2023-06-19T08:18:02;100540.28;;;25.04;47.90
62544;BME280;48597;49.030;1.822;2023-06-19T08:20:27;100541.09;;;25.04;47.98
62544;BME280;48597;49.030;1.822;2023-06-19T08:22:53;100544.75;;;25.05;47.85
62544;BME280;48597;49.030;1.822;2023-06-19T08:25:18;100548.44;;;25.05;47.73
62544;BME280;48597;49.030;1.822;2023-06-19T08:27:44;100540.56;;;25.06;47.86
62544;BME280;48597;49.030;1.822;2023-06-19T08:30:10;100531.41;;;25.07;47.89
62544;BME280;48597;49.030;1.822;2023-06-19T08:32:36;100536.38;;;25.07;47.74
62544;BME280;48597;49.030;1.822;2023-06-19T08:35:01;100539.28;;;25.07;47.98
62544;BME280;48597;49.030;1.822;2023-06-19T08:37:28;100529.34;;;25.08;47.96
62544;BME280;48597;49.030;1.822;2023-06-19T08:39:53;100527.25;;;25.08;47.95
62544;BME280;48597;49.030;1.822;2023-06-19T08:42:21;100531.72;;;25.09;48.34
62544;BME280;48597;49.030;1.822;2023-06-19T08:44:47;100532.53;;;25.10;48.50
62544;BME280;48597;49.030;1.822;2023-06-19T08:47:12;100527.56;;;25.10;48.93
62544;BME280;48597;49.030;1.822;2023-06-19T08:49:39;100532.03;;;25.11;48.87
62544;BME280;48597;49.030;1.822;2023-06-19T08:52:04;100527.56;;;25.10;49.28
62544;BME280;48597;49.030;1.822;2023-06-19T08:54:31;100529.16;;;25.11;49.19
62544;BME280;48597;49.030;1.822;2023-06-19T08:57:00;100525.75;;;25.13;49.18
62544;BME280;48597;49.030;1.822;2023-06-19T08:59:25;100524.16;;;25.12;49.21
62544;BME280;48597;49.030;1.822;2023-06-19T09:01:53;100522.88;;;25.13;49.37
62544;BME280;48597;49.030;1.822;2023-06-19T09:04:28;100526.06;;;25.15;49.24
62544;BME280;48597;49.030;1.822;2023-06-19T09:07:01;100523.19;;;25.15;49.46
62544;BME280;48597;49.030;1.822;2023-06-19T09:09:27;100521.09;;;25.15;49.42
62544;BME280;48597;49.030;1.822;2023-06-19T09:16:57;100516.94;;;25.16;49.63
62544;BME280;48597;49.030;1.822;2023-06-19T09:19:23;100526.38;;;25.17;49.69
62544;BME280;48597;49.030;1.822;2023-06-19T09:21:48;100519.31;;;25.18;49.78
62544;BME280;48597;49.030;1.822;2023-06-19T09:24:13;100519.31;;;25.18;49.95
62544;BME280;48597;49.030;1.822;2023-06-19T09:26:39;100518.00;;;25.19;49.85
62544;BME280;48597;49.030;1.822;2023-06-19T09:29:14;100508.06;;;25.20;49.90
62544;BME280;48597;49.030;1.822;2023-06-19T09:31:43;100507.25;;;25.19;49.63
62544;BME280;48597;49.030;1.822;2023-06-19T09:34:08;100502.28;;;25.20;49.94
62544;BME280;48597;49.030;1.822;2023-06-19T09:36:35;100508.06;;;25.20;49.80
62544;BME280;48597;49.030;1.822;2023-06-19T09:39:02;100498.91;;;25.21;49.94
62544;BME280;48597;49.030;1.822;2023-06-19T09:41:29;100494.72;;;25.22;50.08
62544;BME280;48597;49.030;1.822;2023-06-19T09:43:55;100506.28;;;25.22;49.71
62544;BME280;48597;49.030;1.822;2023-06-19T09:46:30;100499.22;;;25.23;49.75
62544;BME280;48597;49.030;1.822;2023-06-19T09:49:00;100507.84;;;25.23;50.13
62544;BME280;48597;49.030;1.822;2023-06-19T09:51:37;100503.69;;;25.24;49.95
62544;BME280;48597;49.030;1.822;2023-06-19T09:54:06;100513.13;;;25.25;49.83
62544;BME280;48597;49.030;1.822;2023-06-19T09:56:32;100511.84;;;25.26;49.78
62544;BME280;48597;49.030;1.822;2023-06-19T09:58:59;100510.25;;;25.25;50.00
62544;BME280;48597;49.030;1.822;2023-06-19T10:01:27;100504.78;;;25.27;49.86
62544;BME280;48597;49.030;1.822;2023-06-19T10:04:06;100503.50;;;25.28;49.92
62544;BME280;48597;49.030;1.822;2023-06-19T10:06:31;100505.59;;;25.27;49.90
62544;BME280;48597;49.030;1.822;2023-06-19T10:09:08;100501.41;;;25.28;49.86
62544;BME280;48597;49.030;1.822;2023-06-19T10:11:48;100503.78;;;25.30;49.78
62544;BME280;48597;49.030;1.822;2023-06-19T10:14:13;100485.69;;;25.30;49.87
62544;BME280;48597;49.030;1.822;2023-06-19T10:16:40;100494.66;;;25.32;49.79
62544;BME280;48597;49.030;1.822;2023-06-19T10:19:18;100484.66;;;25.33;49.55
62544;BME280;48597;49.030;1.822;2023-06-19T10:21:50;100488.34;;;25.33;49.57
62544;BME280;48597;49.030;1.822;2023-06-19T10:24:17;100484.66;;;25.33;49.52
62544;BME280;48597;49.030;1.822;2023-06-19T10:26:58;100489.16;;;25.34;49.29
62544;BME280;48597;49.030;1.822;2023-06-19T10:29:23;100489.16;;;25.34;49.51
62544;BME280;48597;49.030;1.822;2023-06-19T10:31:49;100486.25;;;25.34;49.30
62544;BME280;48597;49.030;1.822;2023-06-19T10:34:15;100484.97;;;25.35;49.18
62544;BME280;48597;49.030;1.822;2023-06-19T10:36:40;100475.81;;;25.36;49.21
62544;BME280;48597;49.030;1.822;2023-06-19T10:39:06;100493.13;;;25.36;49.25
62544;BME280;48597;49.030;1.822;2023-06-19T10:41:32;100495.53;;;25.38;49.45
62544;BME280;48597;49.030;1.822;2023-06-19T10:44:00;100493.44;;;25.38;49.25
62544;BME280;48597;49.030;1.822;2023-06-19T10:46:33;100491.66;;;25.41;49.31
62544;BME280;48597;49.030;1.822;2023-06-19T10:49:02;100494.53;;;25.41;49.46
62544;BME280;48597;49.030;1.822;2023-06-19T10:51:30;100492.44;;;25.41;49.45
62544;BME280;48597;49.030;1.822;2023-06-19T10:53:56;100494.03;;;25.42;49.50
62544;BME280;48597;49.030;1.822;2023-06-19T10:56:23;100486.97;;;25.43;49.42
62544;BME280;48597;49.030;1.822;2023-06-19T10:58:59;100484.09;;;25.43;49.50
62544;BME280;48597;49.030;1.822;2023-06-19T11:01:33;100487.25;;;25.45;49.44
62544;BME280;48597;49.030;1.822;2023-06-19T11:03:59;100483.56;;;25.45;49.27
62544;BME280;48597;49.030;1.822;2023-06-19T11:06:24;100477.78;;;25.45;49.40
62544;BME280;48597;49.030;1.822;2023-06-19T11:08:53;100479.38;;;25.46;49.28
62544;BME280;48597;49.030;1.822;2023-06-19T11:11:18;100473.63;;;25.46;49.45
62544;BME280;48597;49.030;1.822;2023-06-19T11:13:45;100479.69;;;25.48;49.64
62544;BME280;48597;49.030;1.822;2023-06-19T11:16:10;100479.69;;;25.48;49.67
62544;BME280;48597;49.030;1.822;2023-06-19T11:18:36;100476.31;;;25.49;49.70
62544;BME280;48597;49.030;1.822;2023-06-19T11:21:01;100468.44;;;25.50;49.77
62544;BME280;48597;49.030;1.822;2023-06-19T11:23:29;100470.03;;;25.51;49.74
62544;BME280;48597;49.030;1.822;2023-06-19T11:26:02;100478.19;;;25.52;49.81
62544;BME280;48597;49.030;1.822;2023-06-19T11:28:28;100470.81;;;25.51;49.88
62544;BME280;48597;49.030;1.822;2023-06-19T11:31:02;100477.69;;;25.54;49.82
62544;BME280;48597;49.030;1.822;2023-06-19T11:33:28;100467.44;;;25.53;49.60
62544;BME280;48597;49.030;1.822;2023-06-19T11:35:54;100469.03;;;25.54;49.60
62544;BME280;48597;49.030;1.822;2023-06-19T11:38:21;100465.66;;;25.55;50.10
62544;BME280;48597;49.030;1.822;2023-06-19T11:40:48;100459.88;;;25.55;49.92
62544;BME280;48597;49.030;1.822;2023-06-19T11:43:34;100459.88;;;25.55;49.81
62544;BME280;48597;49.030;1.822;2023-06-19T11:46:05;100455.72;;;25.56;50.03
62544;BME280;48597;49.030;1.822;2023-06-19T11:48:30;100455.72;;;25.56;49.79
62544;BME280;48597;49.030;1.822;2023-06-19T11:50:56;100458.06;;;25.58;50.04
62544;BME280;48597;49.030;1.822;2023-06-19T11:53:22;100447.84;;;25.57;49.95
62544;BME280;48597;49.030;1.822;2023-06-19T11:55:49;100452.28;;;25.58;49.81
62544;BME280;48597;49.030;1.822;2023-06-19T11:58:14;100454.69;;;25.59;49.87
62544;BME280;48597;49.030;1.822;2023-06-19T12:00:44;100443.13;;;25.59;49.80
62544;BME280;48597;49.030;1.822;2023-06-19T12:03:10;100455.47;;;25.60;49.78
62544;BME280;48597;49.030;1.822;2023-06-19T12:05:38;100448.44;;;25.61;50.02
62544;BME280;48597;49.030;1.822;2023-06-19T12:08:04;100446.34;;;25.61;49.84
62544;BME280;48597;49.030;1.822;2023-06-19T12:10:33;100453.72;;;25.62;49.74
62544;BME280;48597;49.030;1.822;2023-06-19T12:12:59;100455.00;;;25.61;49.70
62544;BME280;48597;49.030;1.822;2023-06-19T12:15:25;100453.72;;;25.62;49.86
62544;BME280;48597;49.030;1.822;2023-06-19T12:17:51;100451.63;;;25.63;49.67
62544;BME280;48597;49.030;1.822;2023-06-19T12:20:17;100451.63;;;25.63;49.62
62544;BME280;48597;49.030;1.822;2023-06-19T12:22:43;100455.31;;;25.63;49.55
62544;BME280;48597;49.030;1.822;2023-06-19T12:25:09;100456.91;;;25.65;49.28
62544;BME280;48597;49.030;1.822;2023-06-19T12:27:35;100448.25;;;25.65;49.44
62544;BME280;48597;49.030;1.822;2023-06-19T12:30:00;100451.91;;;25.65;49.06
62544;BME280;48597;49.030;1.822;2023-06-19T12:32:26;100443.25;;;25.65;49.34
62544;BME280;48597;49.030;1.822;2023-06-19T12:34:51;100442.47;;;25.65;49.18
62544;BME280;48597;49.030;1.822;2023-06-19T12:37:20;100450.63;;;25.66;49.01
62544;BME280;48597;49.030;1.822;2023-06-19T12:39:46;100449.34;;;25.67;48.84
62544;BME280;48597;49.030;1.822;2023-06-19T12:42:12;100455.09;;;25.67;48.91
62544;BME280;48597;49.030;1.822;2023-06-19T12:44:41;100441.47;;;25.68;48.89
62544;BME280;48597;49.030;1.822;2023-06-19T12:47:07;100444.34;;;25.68;49.07
62544;BME280;48597;49.030;1.822;2023-06-19T12:49:32;100442.25;;;25.68;49.03
62544;BME280;48597;49.030;1.822;2023-06-19T12:51:58;100440.19;;;25.69;49.15